Time;durP1;ratioP1;P1;durP2;ratioP2;P2;SDS_P1;SDS_P2;PMS_P1;PMS_P2;Temp;Humidity;BMP_temperature;BMP_pressure;BME280_temperature;BME280_humidity;BME280_pressure;Samples;Min_cycle;Max_cycle;Signal;HPM_P1;HPM_P2
2022/05/07 00:00:43;;;;;;;;;;;12.90;99.90;;;;;;5095636;28;19920;-60
2022/05/07 00:03:09;;;;;;;;;;;13.00;99.90;;;;;;5095510;28;19920;-60
2022/05/07 00:05:36;;;;;;;;;;;12.90;99.90;;;;;;5095380;28;20370;-60
2022/05/07 00:08:03;;;;;;;;;;;13.00;99.90;;;;;;5095245;28;19927;-60
2022/05/07 00:10:28;;;;;;;;;;;13.10;99.90;;;;;;5095547;28;19998;-59
2022/05/07 00:12:54;;;;;;;;;;;13.00;99.90;;;;;;5095274;28;20315;-59
2022/05/07 00:15:19;;;;;;;;;;;13.10;99.90;;;;;;5077289;28;19989;-59
2022/05/07 00:18:06;;;;;;;;;;;13.10;99.90;;;;;;5095404;28;19964;-60
2022/05/07 00:20:33;;;;;;;;;;;13.10;99.90;;;;;;5060527;28;20445;-60
2022/05/07 00:22:58;;;;;;;;;;;13.10;99.90;;;;;;5095565;28;19928;-60
2022/05/07 00:25:25;;;;;;;;;;;13.10;99.90;;;;;;5095366;28;19920;-60
2022/05/07 00:27:50;;;;;;;;;;;13.10;99.90;;;;;;5095077;28;19921;-60
2022/05/07 00:30:16;;;;;;;;;;;13.00;99.90;;;;;;5076727;28;20286;-60
2022/05/07 00:32:41;;;;;;;;;;;13.10;99.90;;;;;;5094838;28;19924;-60
2022/05/07 00:35:09;;;;;;;;;;;13.10;99.90;;;;;;5094703;28;19920;-60
2022/05/07 00:37:34;;;;;;;;;;;13.10;99.90;;;;;;5095048;28;19927;-60
2022/05/07 00:40:00;;;;;;;;;;;13.10;99.90;;;;;;5094820;28;20297;-60
2022/05/07 00:42:25;;;;;;;;;;;13.10;99.90;;;;;;5094728;28;19920;-59
2022/05/07 00:44:51;;;;;;;;;;;13.10;99.90;;;;;;5094878;28;19928;-59
2022/05/07 00:47:26;;;;;;;;;;;13.10;99.90;;;;;;5094578;28;19920;-60
2022/05/07 00:49:54;;;;;;;;;;;13.10;99.90;;;;;;5094553;28;19970;-60
2022/05/07 00:52:20;;;;;;;;;;;13.10;99.90;;;;;;5094646;28;19924;-60
2022/05/07 00:54:46;;;;;;;;;;;13.00;99.90;;;;;;5094677;28;19920;-60
2022/05/07 00:57:12;;;;;;;;;;;13.10;99.90;;;;;;5094362;28;19920;-60
2022/05/07 00:59:37;;;;;;;;;;;13.10;99.90;;;;;;5094326;28;20010;-60
2022/05/07 01:02:03;;;;;;;;;;;13.10;99.90;;;;;;5094227;28;19920;-60
2022/05/07 01:04:28;;;;;;;;;;;13.20;99.90;;;;;;5076225;28;19978;-60
2022/05/07 01:06:54;;;;;;;;;;;13.20;99.90;;;;;;5094442;28;19921;-61
2022/05/07 01:09:20;;;;;;;;;;;13.20;99.90;;;;;;5094432;28;19988;-60
2022/05/07 01:11:46;;;;;;;;;;;13.30;99.90;;;;;;5094044;28;19971;-60
2022/05/07 01:14:11;;;;;;;;;;;13.30;99.90;;;;;;5094213;28;20358;-60
2022/05/07 01:16:37;;;;;;;;;;;13.30;99.90;;;;;;5094056;28;19943;-60
2022/05/07 01:19:02;;;;;;;;;;;13.30;99.90;;;;;;5093978;28;19931;-60
2022/05/07 01:21:28;;;;;;;;;;;13.20;99.90;;;;;;5094152;28;19971;-60
2022/05/07 01:23:54;;;;;;;;;;;13.30;99.90;;;;;;5093983;28;19924;-60
2022/05/07 01:26:21;;;;;;;;;;;13.30;99.90;;;;;;5094203;28;19931;-60
2022/05/07 01:28:47;;;;;;;;;;;13.30;99.90;;;;;;5094154;28;20042;-60
2022/05/07 01:31:12;;;;;;;;;;;13.30;99.90;;;;;;5093440;28;20003;-60
2022/05/07 01:33:38;;;;;;;;;;;13.30;99.90;;;;;;5093602;28;19924;-60
2022/05/07 01:36:08;;;;;;;;;;;13.40;99.90;;;;;;5093855;28;19920;-60
2022/05/07 01:38:34;;;;;;;;;;;13.30;99.90;;;;;;5093811;28;19920;-60
2022/05/07 01:40:59;;;;;;;;;;;13.30;99.90;;;;;;5093073;28;19926;-60
2022/05/07 01:43:28;;;;;;;;;;;13.30;99.90;;;;;;5075423;28;20301;-59
2022/05/07 01:45:55;;;;;;;;;;;13.40;99.90;;;;;;5093429;28;19920;-60
2022/05/07 01:48:21;;;;;;;;;;;13.40;99.90;;;;;;5093557;28;19920;-60
2022/05/07 01:50:46;;;;;;;;;;;13.40;99.90;;;;;;5093447;28;19979;-60
2022/05/07 01:53:13;;;;;;;;;;;13.40;99.90;;;;;;5093358;28;19974;-60
2022/05/07 01:55:39;;;;;;;;;;;13.40;99.90;;;;;;5093319;28;19920;-60
2022/05/07 01:58:05;;;;;;;;;;;13.40;99.90;;;;;;5093233;28;19927;-60
2022/05/07 02:00:31;;;;;;;;;;;13.40;99.90;;;;;;5074873;28;19924;-60
2022/05/07 02:03:00;;;;;;;;;;;13.30;99.90;;;;;;5093077;28;19927;-60
2022/05/07 02:05:27;;;;;;;;;;;13.30;99.90;;;;;;5093150;28;20275;-60
2022/05/07 02:07:52;;;;;;;;;;;13.40;99.90;;;;;;5093071;28;19920;-60
2022/05/07 02:10:18;;;;;;;;;;;13.40;99.90;;;;;;5092963;28;19926;-60
2022/05/07 02:12:44;;;;;;;;;;;13.40;99.90;;;;;;5092726;28;19970;-60
2022/05/07 02:15:09;;;;;;;;;;;13.50;99.90;;;;;;5092853;28;19927;-60
2022/05/07 02:17:35;;;;;;;;;;;13.50;99.90;;;;;;5093010;28;19927;-60
2022/05/07 02:20:02;;;;;;;;;;;13.50;99.90;;;;;;5092884;28;19923;-60
2022/05/07 02:22:27;;;;;;;;;;;13.50;99.90;;;;;;5092795;28;19920;-60
2022/05/07 02:24:53;;;;;;;;;;;13.60;99.90;;;;;;5092759;28;19927;-60
2022/05/07 02:27:18;;;;;;;;;;;13.60;99.90;;;;;;5092804;28;19920;-60
2022/05/07 02:29:44;;;;;;;;;;;13.60;99.90;;;;;;5092522;28;19920;-60
2022/05/07 02:32:13;;;;;;;;;;;13.60;99.90;;;;;;5092437;28;19924;-60
2022/05/07 02:34:39;;;;;;;;;;;13.60;99.90;;;;;;5092764;28;19920;-60
2022/05/07 02:37:05;;;;;;;;;;;13.60;99.90;;;;;;5092655;28;19927;-60
2022/05/07 02:39:30;;;;;;;;;;;13.60;99.90;;;;;;5092670;28;19927;-59
2022/05/07 02:44:40;;;;;;;;;;;13.50;99.90;;;;;;5092665;28;19924;-60
2022/05/07 02:47:05;;;;;;;;;;;13.60;99.90;;;;;;5092508;28;19973;-60
2022/05/07 02:49:31;;;;;;;;;;;13.50;99.90;;;;;;5092588;28;19931;-60
2022/05/07 02:51:57;;;;;;;;;;;13.50;99.90;;;;;;5091544;28;19978;-60
2022/05/07 02:54:22;;;;;;;;;;;13.50;99.90;;;;;;5092339;28;20279;-59
2022/05/07 02:56:48;;;;;;;;;;;13.50;99.90;;;;;;5092292;28;19926;-60
2022/05/07 02:59:13;;;;;;;;;;;13.40;99.90;;;;;;5092473;28;19967;-60
2022/05/07 03:01:41;;;;;;;;;;;13.40;99.90;;;;;;5092545;28;19927;-60
2022/05/07 03:04:07;;;;;;;;;;;13.40;99.90;;;;;;5074706;28;20320;-59
2022/05/07 03:06:33;;;;;;;;;;;13.40;99.90;;;;;;5092171;28;19920;-60
2022/05/07 03:08:58;;;;;;;;;;;13.40;99.90;;;;;;5092169;28;19920;-60
2022/05/07 03:11:24;;;;;;;;;;;13.40;99.90;;;;;;5092069;28;19924;-60
2022/05/07 03:13:49;;;;;;;;;;;13.40;99.90;;;;;;5092388;28;19927;-60
2022/05/07 03:16:15;;;;;;;;;;;13.40;99.90;;;;;;5092230;28;19920;-60
2022/05/07 03:18:40;;;;;;;;;;;13.40;99.90;;;;;;5092401;28;19939;-59
2022/05/07 03:21:06;;;;;;;;;;;13.40;99.90;;;;;;5092002;28;20396;-60
2022/05/07 03:23:31;;;;;;;;;;;13.40;99.90;;;;;;5092086;28;19920;-60
2022/05/07 03:25:57;;;;;;;;;;;13.30;99.90;;;;;;5092002;28;20378;-60
2022/05/07 03:28:22;;;;;;;;;;;13.30;99.90;;;;;;5092105;28;19927;-60
2022/05/07 03:30:48;;;;;;;;;;;13.30;99.90;;;;;;5091797;28;19924;-60
2022/05/07 03:33:14;;;;;;;;;;;13.30;99.90;;;;;;5092254;28;20363;-60
2022/05/07 03:35:40;;;;;;;;;;;13.30;99.90;;;;;;5091853;28;19920;-60
2022/05/07 03:38:05;;;;;;;;;;;13.30;99.90;;;;;;5092002;28;19926;-60
2022/05/07 03:40:32;;;;;;;;;;;13.30;99.90;;;;;;5092021;28;19924;-60
2022/05/07 03:42:58;;;;;;;;;;;13.30;99.90;;;;;;5091821;28;20007;-60
2022/05/07 03:45:24;;;;;;;;;;;13.10;99.90;;;;;;5091993;28;20393;-60
2022/05/07 03:47:49;;;;;;;;;;;13.20;99.90;;;;;;5091956;28;19963;-60
2022/05/07 03:50:15;;;;;;;;;;;13.20;99.90;;;;;;5091753;28;19920;-60
2022/05/07 03:55:24;;;;;;;;;;;13.20;99.90;;;;;;5091994;28;19920;-59
2022/05/07 03:57:50;;;;;;;;;;;13.20;99.90;;;;;;5091941;28;19931;-60
2022/05/07 04:00:16;;;;;;;;;;;13.20;99.90;;;;;;5091796;28;20010;-59
2022/05/07 04:02:41;;;;;;;;;;;13.10;99.90;;;;;;5092057;28;19987;-59
2022/05/07 04:05:07;;;;;;;;;;;13.10;99.90;;;;;;5095778;28;19958;-60
2022/05/07 04:07:33;;;;;;;;;;;13.10;99.90;;;;;;5095277;28;20006;-60
2022/05/07 04:09:59;;;;;;;;;;;13.10;99.90;;;;;;5077484;28;20377;-60
2022/05/07 04:12:24;;;;;;;;;;;13.10;99.90;;;;;;5077040;28;19928;-60
2022/05/07 04:14:50;;;;;;;;;;;13.10;99.90;;;;;;5095419;28;20252;-60
2022/05/07 04:17:15;;;;;;;;;;;13.00;99.90;;;;;;5095238;28;19921;-60
2022/05/07 04:19:41;;;;;;;;;;;13.00;99.90;;;;;;5095208;28;19924;-60
2022/05/07 04:22:06;;;;;;;;;;;13.10;99.90;;;;;;5095002;28;19928;-60
2022/05/07 04:24:36;;;;;;;;;;;13.10;99.90;;;;;;5095012;28;19927;-60
2022/05/07 04:27:02;;;;;;;;;;;13.10;99.90;;;;;;5095182;28;19927;-60
2022/05/07 04:29:27;;;;;;;;;;;13.10;99.90;;;;;;5095135;28;19920;-60
2022/05/07 04:31:53;;;;;;;;;;;13.10;99.90;;;;;;5094732;28;19924;-60
2022/05/07 04:34:18;;;;;;;;;;;13.00;99.90;;;;;;5095050;28;19927;-60
2022/05/07 04:36:44;;;;;;;;;;;13.20;99.90;;;;;;5094962;28;20402;-60
2022/05/07 04:39:09;;;;;;;;;;;13.30;99.90;;;;;;5077232;28;19920;-60
2022/05/07 04:41:35;;;;;;;;;;;13.30;99.90;;;;;;5094883;28;19973;-60
2022/05/07 04:44:03;;;;;;;;;;;13.30;99.90;;;;;;5094884;28;19924;-60
2022/05/07 04:46:29;;;;;;;;;;;13.20;99.90;;;;;;5094690;28;19920;-60
2022/05/07 04:48:54;;;;;;;;;;;13.30;99.90;;;;;;5094553;28;20309;-59
2022/05/07 04:51:20;;;;;;;;;;;13.30;99.90;;;;;;5094471;28;19924;-60
2022/05/07 04:53:45;;;;;;;;;;;13.30;99.90;;;;;;5094380;28;19920;-59
2022/05/07 04:56:11;;;;;;;;;;;13.30;99.90;;;;;;5094514;28;19924;-60
2022/05/07 04:58:36;;;;;;;;;;;13.40;99.90;;;;;;5094304;28;20019;-60
2022/05/07 05:01:02;;;;;;;;;;;13.30;99.90;;;;;;5094407;28;20008;-59
2022/05/07 05:03:27;;;;;;;;;;;13.40;99.90;;;;;;5094404;28;20335;-59
2022/05/07 05:05:53;;;;;;;;;;;13.40;99.90;;;;;;5094101;28;20436;-60
2022/05/07 05:08:18;;;;;;;;;;;13.40;99.90;;;;;;5094359;28;19924;-59
2022/05/07 05:10:45;;;;;;;;;;;13.40;99.90;;;;;;5094207;28;19920;-60
2022/05/07 05:13:11;;;;;;;;;;;13.40;99.90;;;;;;5094271;28;19967;-59
2022/05/07 05:15:36;;;;;;;;;;;13.50;99.90;;;;;;5093258;28;19975;-59
2022/05/07 05:18:02;;;;;;;;;;;13.50;99.90;;;;;;5094171;28;19924;-60
2022/05/07 05:20:28;;;;;;;;;;;13.60;99.90;;;;;;5094034;28;19924;-60
2022/05/07 05:22:53;;;;;;;;;;;13.60;99.90;;;;;;5094079;28;19971;-60
2022/05/07 05:25:21;;;;;;;;;;;13.50;99.90;;;;;;5093860;28;19920;-61
2022/05/07 05:27:48;;;;;;;;;;;13.60;99.90;;;;;;5093972;28;20024;-60
2022/05/07 05:30:14;;;;;;;;;;;13.70;99.90;;;;;;5093753;28;19927;-60
2022/05/07 05:32:40;;;;;;;;;;;13.60;99.90;;;;;;5093418;28;19925;-61
2022/05/07 05:35:05;;;;;;;;;;;13.70;99.90;;;;;;5093647;28;19920;-60
2022/05/07 05:37:31;;;;;;;;;;;13.60;99.90;;;;;;5093833;28;19930;-60
2022/05/07 05:39:56;;;;;;;;;;;13.60;99.90;;;;;;5093387;28;20316;-60
2022/05/07 05:42:22;;;;;;;;;;;13.60;99.90;;;;;;5093717;28;19920;-61
2022/05/07 05:44:48;;;;;;;;;;;13.70;99.90;;;;;;5093796;28;19920;-60
2022/05/07 05:47:13;;;;;;;;;;;13.60;99.90;;;;;;5093504;28;20336;-60
2022/05/07 05:49:39;;;;;;;;;;;13.70;99.90;;;;;;5093376;28;19920;-60
2022/05/07 05:52:05;;;;;;;;;;;13.70;99.90;;;;;;5093459;28;20014;-60
2022/05/07 05:54:30;;;;;;;;;;;13.80;99.90;;;;;;5093441;28;20013;-60
2022/05/07 05:56:57;;;;;;;;;;;13.70;99.90;;;;;;5093370;28;20394;-60
2022/05/07 05:59:23;;;;;;;;;;;13.80;99.90;;;;;;5093156;28;19927;-60
2022/05/07 06:01:48;;;;;;;;;;;13.80;99.90;;;;;;5093133;28;19920;-61
2022/05/07 06:04:14;;;;;;;;;;;13.90;99.90;;;;;;5093378;28;19924;-60
2022/05/07 06:06:40;;;;;;;;;;;13.90;99.90;;;;;;5093342;28;19920;-60
2022/05/07 06:09:06;;;;;;;;;;;14.00;99.90;;;;;;5093099;28;19927;-60
2022/05/07 06:11:31;;;;;;;;;;;14.10;99.90;;;;;;5093144;28;19924;-60
2022/05/07 06:13:57;;;;;;;;;;;14.20;99.90;;;;;;5092970;28;19927;-60
2022/05/07 06:16:23;;;;;;;;;;;14.30;99.90;;;;;;5092877;28;19920;-60
2022/05/07 06:18:48;;;;;;;;;;;14.40;99.90;;;;;;5092836;28;19920;-60
2022/05/07 06:21:14;;;;;;;;;;;14.50;99.90;;;;;;5092945;28;19927;-61
2022/05/07 06:23:39;;;;;;;;;;;14.60;99.90;;;;;;5093054;28;19963;-60
2022/05/07 06:28:49;;;;;;;;;;;14.70;99.90;;;;;;5092766;28;19920;-60
2022/05/07 06:31:17;;;;;;;;;;;14.80;99.90;;;;;;5092428;28;19977;-60
2022/05/07 06:33:42;;;;;;;;;;;14.90;99.90;;;;;;5092843;28;19920;-60
2022/05/07 06:36:08;;;;;;;;;;;15.00;99.90;;;;;;5092790;28;19927;-60
2022/05/07 06:38:34;;;;;;;;;;;15.20;99.90;;;;;;5092632;28;19920;-60
2022/05/07 06:41:02;;;;;;;;;;;15.40;99.90;;;;;;5092709;28;19958;-60
2022/05/07 06:43:29;;;;;;;;;;;15.50;99.90;;;;;;5092514;28;19928;-60
2022/05/07 06:45:54;;;;;;;;;;;15.50;99.90;;;;;;5074680;28;20058;-59
2022/05/07 06:48:20;;;;;;;;;;;15.40;99.90;;;;;;5092805;28;20042;-58
2022/05/07 06:50:45;;;;;;;;;;;15.50;99.90;;;;;;5092766;28;19945;-58
2022/05/07 06:53:11;;;;;;;;;;;15.40;99.90;;;;;;5092437;28;20406;-58
2022/05/07 06:55:54;;;;;;;;;;;15.60;99.90;;;;;;5092421;28;20263;-58
2022/05/07 06:58:25;;;;;;;;;;;15.60;99.90;;;;;;5092329;28;19926;-58
2022/05/07 07:00:50;;;;;;;;;;;16.00;99.90;;;;;;5092206;28;19924;-58
2022/05/07 07:03:16;;;;;;;;;;;16.20;99.90;;;;;;5092358;28;19927;-57
2022/05/07 07:05:42;;;;;;;;;;;16.30;99.90;;;;;;5092398;28;20340;-58
2022/05/07 07:08:08;;;;;;;;;;;16.30;99.90;;;;;;5092202;28;20370;-57
2022/05/07 07:10:33;;;;;;;;;;;16.30;99.90;;;;;;5092191;28;19927;-58
2022/05/07 07:12:59;;;;;;;;;;;16.60;99.90;;;;;;5091972;28;19924;-58
2022/05/07 07:15:24;;;;;;;;;;;16.70;99.90;;;;;;5092269;28;19920;-58
2022/05/07 07:17:50;;;;;;;;;;;16.70;99.90;;;;;;5092097;28;20401;-59
2022/05/07 07:20:15;;;;;;;;;;;16.70;99.90;;;;;;5092225;28;19927;-58
2022/05/07 07:22:41;;;;;;;;;;;16.70;99.90;;;;;;5092161;28;19924;-59
2022/05/07 07:25:07;;;;;;;;;;;16.70;99.90;;;;;;5092030;28;20357;-59
2022/05/07 07:27:34;;;;;;;;;;;16.80;99.90;;;;;;5092212;28;19924;-58
2022/05/07 07:29:59;;;;;;;;;;;16.80;99.90;;;;;;5092187;28;19924;-58
2022/05/07 07:32:25;;;;;;;;;;;16.90;99.90;;;;;;5091902;28;20222;-59
2022/05/07 07:34:51;;;;;;;;;;;16.90;99.90;;;;;;5092056;28;20354;-59
2022/05/07 07:37:17;;;;;;;;;;;16.90;99.90;;;;;;5091881;28;19966;-60
2022/05/07 07:39:42;;;;;;;;;;;17.00;99.90;;;;;;5095674;28;19995;-58
2022/05/07 07:42:08;;;;;;;;;;;17.00;99.90;;;;;;5095752;28;19927;-60
2022/05/07 07:44:33;;;;;;;;;;;17.10;99.90;;;;;;5095981;28;19920;-59
2022/05/07 07:49:43;;;;;;;;;;;17.20;99.90;;;;;;5095638;28;20383;-60
2022/05/07 07:52:09;;;;;;;;;;;17.40;99.90;;;;;;5095665;28;19939;-58
2022/05/07 07:54:34;;;;;;;;;;;17.50;99.90;;;;;;5095556;28;19927;-59
2022/05/07 07:57:02;;;;;;;;;;;17.60;99.90;;;;;;5095625;28;19920;-58
2022/05/07 07:59:29;;;;;;;;;;;17.50;99.90;;;;;;5095742;28;20011;-59
2022/05/07 08:01:56;;;;;;;;;;;17.60;99.90;;;;;;5095551;28;20027;-59
2022/05/07 08:04:24;;;;;;;;;;;17.80;99.90;;;;;;5095292;28;19931;-59
2022/05/07 08:11:40;;;;;;;;;;;17.70;99.90;;;;;;5095373;28;20009;-59
2022/05/07 08:12:19;;;;;;;;;;;17.40;99.90;;;;;;5095549;28;20369;-59
2022/05/07 08:14:45;;;;;;;;;;;17.50;99.90;;;;;;5095240;28;19927;-60
2022/05/07 08:17:11;;;;;;;;;;;17.40;99.90;;;;;;5095251;28;19931;-59
2022/05/07 08:19:36;;;;;;;;;;;17.50;99.90;;;;;;5095088;28;19920;-58
2022/05/07 08:22:02;;;;;;;;;;;17.50;99.90;;;;;;5095340;28;20015;-59
2022/05/07 08:24:28;;;;;;;;;;;17.50;99.90;;;;;;5094920;28;19926;-59
2022/05/07 08:26:54;;;;;;;;;;;17.50;99.90;;;;;;5094956;28;19920;-60
2022/05/07 08:29:21;;;;;;;;;;;17.40;99.90;;;;;;5094917;28;19927;-60
2022/05/07 08:31:48;;;;;;;;;;;17.40;99.90;;;;;;5094689;28;19925;-59
2022/05/07 08:34:13;;;;;;;;;;;17.40;99.90;;;;;;5094970;28;20288;-60
2022/05/07 08:36:39;;;;;;;;;;;17.40;99.90;;;;;;5095087;28;20011;-59
2022/05/07 08:39:04;;;;;;;;;;;17.40;99.90;;;;;;5094859;28;19920;-59
2022/05/07 08:41:30;;;;;;;;;;;17.40;99.90;;;;;;5094772;28;19927;-59
2022/05/07 08:43:55;;;;;;;;;;;17.40;99.90;;;;;;5094812;28;20282;-59
2022/05/07 08:46:21;;;;;;;;;;;17.40;99.90;;;;;;5094635;28;19931;-59
2022/05/07 08:48:47;;;;;;;;;;;17.30;99.90;;;;;;5076090;28;19963;-59
2022/05/07 08:51:17;;;;;;;;;;;17.40;99.90;;;;;;5093545;28;20018;-59
2022/05/07 08:53:48;;;;;;;;;;;17.30;99.90;;;;;;5094831;28;20008;-59
2022/05/07 08:56:13;;;;;;;;;;;17.30;99.90;;;;;;5094513;28;19927;-59
2022/05/07 08:58:45;;;;;;;;;;;17.30;99.90;;;;;;5094839;28;20320;-59
2022/05/07 09:01:11;;;;;;;;;;;17.40;99.90;;;;;;5094338;28;20046;-59
2022/05/07 09:03:37;;;;;;;;;;;17.30;99.90;;;;;;5094202;28;20003;-59
2022/05/07 09:06:13;;;;;;;;;;;17.40;99.90;;;;;;5094459;28;19920;-60
2022/05/07 09:08:39;;;;;;;;;;;17.30;99.90;;;;;;5094507;28;19920;-60
2022/05/07 09:11:04;;;;;;;;;;;17.30;99.90;;;;;;5094221;28;19924;-59
2022/05/07 09:13:33;;;;;;;;;;;17.20;99.90;;;;;;5093998;28;20464;-59
2022/05/07 09:15:59;;;;;;;;;;;17.10;99.90;;;;;;5093960;28;19947;-59
2022/05/07 09:18:25;;;;;;;;;;;17.20;99.90;;;;;;5094093;28;19924;-59
2022/05/07 09:21:24;;;;;;;;;;;17.30;99.90;;;;;;5094198;28;19928;-59
2022/05/07 09:23:55;;;;;;;;;;;17.30;99.90;;;;;;5093942;28;19928;-60
2022/05/07 09:26:27;;;;;;;;;;;17.20;99.90;;;;;;5093907;28;19935;-60
2022/05/07 09:28:53;;;;;;;;;;;17.20;99.90;;;;;;5093901;28;19974;-59
2022/05/07 09:31:22;;;;;;;;;;;17.20;99.90;;;;;;5093695;28;19936;-60
2022/05/07 09:33:47;;;;;;;;;;;17.30;99.90;;;;;;5075601;28;19999;-60
2022/05/07 09:36:13;;;;;;;;;;;17.40;99.90;;;;;;5093765;28;20019;-59
2022/05/07 09:38:38;;;;;;;;;;;17.40;99.90;;;;;;5093537;28;19924;-60
2022/05/07 09:41:05;;;;;;;;;;;17.40;99.90;;;;;;5093396;28;19950;-59
2022/05/07 09:43:31;;;;;;;;;;;17.50;99.90;;;;;;5093615;28;19921;-59
2022/05/07 09:45:57;;;;;;;;;;;17.50;99.90;;;;;;5093543;28;19920;-59
2022/05/07 09:48:23;;;;;;;;;;;17.50;99.90;;;;;;5093340;28;20003;-59
2022/05/07 09:50:49;;;;;;;;;;;17.50;99.90;;;;;;5093267;28;19920;-59
2022/05/07 09:58:48;;;;;;;;;;;17.70;99.90;;;;;;5093344;28;19920;-59
2022/05/07 10:01:14;;;;;;;;;;;17.80;99.90;;;;;;5092809;28;19999;-59
2022/05/07 10:03:48;;;;;;;;;;;18.00;99.90;;;;;;5093173;28;19927;-59
2022/05/07 10:06:28;;;;;;;;;;;17.90;99.90;;;;;;5093433;28;19969;-59
2022/05/07 10:08:59;;;;;;;;;;;18.00;99.90;;;;;;5093462;28;19924;-59
2022/05/07 10:11:25;;;;;;;;;;;18.20;99.90;;;;;;5093088;28;20014;-59
2022/05/07 10:13:51;;;;;;;;;;;18.20;99.90;;;;;;5093404;28;20058;-59
2022/05/07 10:16:20;;;;;;;;;;;18.20;99.90;;;;;;5092708;28;20285;-59
2022/05/07 10:18:45;;;;;;;;;;;18.20;99.90;;;;;;5092779;28;20429;-59
2022/05/07 10:21:12;;;;;;;;;;;18.30;99.90;;;;;;5092917;28;20012;-59
2022/05/07 10:23:47;;;;;;;;;;;18.20;99.90;;;;;;5092988;28;19927;-59
2022/05/07 10:26:13;;;;;;;;;;;18.20;99.90;;;;;;5092704;28;19924;-59
2022/05/07 10:28:40;;;;;;;;;;;18.40;99.90;;;;;;5092806;28;20321;-59
2022/05/07 10:31:15;;;;;;;;;;;18.30;99.90;;;;;;5092362;28;20292;-59
2022/05/07 10:33:40;;;;;;;;;;;18.20;99.90;;;;;;5092803;28;19928;-59
2022/05/07 10:36:09;;;;;;;;;;;18.10;99.90;;;;;;5092738;28;19920;-59
2022/05/07 10:38:39;;;;;;;;;;;18.20;99.90;;;;;;5092491;28;20379;-59
2022/05/07 10:41:25;;;;;;;;;;;18.20;99.90;;;;;;5092793;28;19978;-59
2022/05/07 10:43:56;;;;;;;;;;;18.00;99.90;;;;;;5092149;28;19919;-59
2022/05/07 10:46:22;;;;;;;;;;;18.00;99.90;;;;;;5092554;28;19995;-59
2022/05/07 10:48:53;;;;;;;;;;;18.00;99.90;;;;;;5092935;28;19955;-59
2022/05/07 10:51:32;;;;;;;;;;;17.90;99.90;;;;;;5092404;28;19942;-59
2022/05/07 10:54:01;;;;;;;;;;;17.70;99.90;;;;;;5092309;28;20006;-59
2022/05/07 10:56:27;;;;;;;;;;;17.70;99.90;;;;;;5092527;28;19920;-59
2022/05/07 10:58:54;;;;;;;;;;;17.60;99.90;;;;;;5092452;28;20281;-59
2022/05/07 11:01:21;;;;;;;;;;;17.70;99.90;;;;;;5092266;28;19920;-59
2022/05/07 11:03:46;;;;;;;;;;;17.80;99.90;;;;;;5074031;28;19920;-59
2022/05/07 11:06:12;;;;;;;;;;;17.80;99.90;;;;;;5092208;28;19920;-60
2022/05/07 11:08:47;;;;;;;;;;;17.90;99.90;;;;;;5092283;28;20405;-61
2022/05/07 11:11:14;;;;;;;;;;;17.90;99.90;;;;;;5092287;28;19924;-59
2022/05/07 11:13:50;;;;;;;;;;;18.00;99.90;;;;;;5094309;28;20054;-59
2022/05/07 11:16:19;;;;;;;;;;;17.90;99.90;;;;;;5096429;28;20377;-59
2022/05/07 11:18:51;;;;;;;;;;;17.90;99.90;;;;;;5096131;28;19920;-59
2022/05/07 11:21:17;;;;;;;;;;;17.80;99.90;;;;;;5096511;28;19920;-60
2022/05/07 11:23:43;;;;;;;;;;;17.80;99.90;;;;;;5096323;28;19966;-60
2022/05/07 11:26:20;;;;;;;;;;;17.70;99.90;;;;;;5096104;28;20401;-59
2022/05/07 11:28:46;;;;;;;;;;;17.70;99.90;;;;;;5078333;28;19928;-60
2022/05/07 11:31:30;;;;;;;;;;;17.70;99.90;;;;;;5095823;28;20016;-59
2022/05/07 11:33:59;;;;;;;;;;;17.60;99.90;;;;;;5096505;28;19928;-60
2022/05/07 11:36:25;;;;;;;;;;;17.70;99.90;;;;;;5095998;28;19920;-59
2022/05/07 11:38:56;;;;;;;;;;;17.70;99.90;;;;;;5095993;28;19967;-59
2022/05/07 11:41:22;;;;;;;;;;;17.80;99.90;;;;;;5095961;28;20293;-59
2022/05/07 11:46:45;;;;;;;;;;;18.20;99.90;;;;;;5095990;28;19920;-59
2022/05/07 11:49:11;;;;;;;;;;;18.40;99.90;;;;;;5095763;28;19924;-59
2022/05/07 11:51:37;;;;;;;;;;;18.40;99.90;;;;;;5095629;28;19924;-59
2022/05/07 11:54:09;;;;;;;;;;;18.40;99.90;;;;;;5077432;28;20284;-59
2022/05/07 11:56:46;;;;;;;;;;;18.30;99.90;;;;;;5095544;28;19966;-59
2022/05/07 11:59:14;;;;;;;;;;;18.30;99.90;;;;;;5095491;28;19920;-59
2022/05/07 12:01:39;;;;;;;;;;;18.20;99.90;;;;;;5095443;28;20022;-59
2022/05/07 12:04:08;;;;;;;;;;;18.30;99.90;;;;;;5095480;28;20007;-59
2022/05/07 12:06:34;;;;;;;;;;;18.30;99.90;;;;;;5095430;28;20286;-59
2022/05/07 12:09:09;;;;;;;;;;;18.30;99.90;;;;;;5095246;28;19928;-60
2022/05/07 12:11:35;;;;;;;;;;;18.30;99.90;;;;;;5095103;28;20358;-59
2022/05/07 12:14:00;;;;;;;;;;;18.20;99.90;;;;;;5095484;28;19949;-59
2022/05/07 12:19:10;;;;;;;;;;;18.10;99.90;;;;;;5095134;28;19920;-59
2022/05/07 12:29:51;;;;;;;;;;;18.20;99.90;;;;;;5094879;28;19998;-59
2022/05/07 12:32:17;;;;;;;;;;;18.20;99.90;;;;;;5094829;28;19924;-59
2022/05/07 12:34:43;;;;;;;;;;;18.10;99.90;;;;;;5094956;28;20289;-59
2022/05/07 12:37:08;;;;;;;;;;;18.20;99.90;;;;;;5094939;28;19920;-59
2022/05/07 12:39:34;;;;;;;;;;;18.20;99.90;;;;;;5094761;28;19926;-59
2022/05/07 12:42:10;;;;;;;;;;;18.30;99.90;;;;;;5094665;28;19920;-59
2022/05/07 12:44:35;;;;;;;;;;;18.40;99.90;;;;;;5094698;28;19927;-59
2022/05/07 12:47:01;;;;;;;;;;;18.60;99.90;;;;;;5094586;28;19924;-60
2022/05/07 12:49:27;;;;;;;;;;;18.40;99.90;;;;;;5094799;28;20006;-59
2022/05/07 12:51:53;;;;;;;;;;;18.60;99.90;;;;;;5094486;28;20441;-59
2022/05/07 12:54:19;;;;;;;;;;;18.80;99.90;;;;;;5094538;28;19923;-59
2022/05/07 12:56:46;;;;;;;;;;;18.80;99.90;;;;;;5094338;28;19920;-59
2022/05/07 12:59:11;;;;;;;;;;;18.80;99.90;;;;;;5094521;28;19920;-59
2022/05/07 13:01:38;;;;;;;;;;;18.80;99.90;;;;;;5094301;28;20015;-59
2022/05/07 13:04:04;;;;;;;;;;;18.60;99.90;;;;;;5094465;28;19924;-59
2022/05/07 13:06:29;;;;;;;;;;;18.70;99.90;;;;;;5094389;28;19966;-59
2022/05/07 13:08:58;;;;;;;;;;;18.80;99.90;;;;;;5094319;28;19920;-59
2022/05/07 13:11:24;;;;;;;;;;;18.70;99.90;;;;;;5093959;28;19924;-59
2022/05/07 13:13:50;;;;;;;;;;;18.70;99.90;;;;;;5094396;28;20007;-60
2022/05/07 13:16:17;;;;;;;;;;;18.50;99.90;;;;;;5076039;28;19999;-60
2022/05/07 13:18:44;;;;;;;;;;;18.80;99.90;;;;;;5094097;28;19974;-59
2022/05/07 13:21:10;;;;;;;;;;;18.80;99.90;;;;;;5094051;28;20294;-59
2022/05/07 13:23:36;;;;;;;;;;;18.80;99.90;;;;;;5093758;28;19920;-59
2022/05/07 13:26:02;;;;;;;;;;;19.20;99.90;;;;;;5093826;28;20003;-59
2022/05/07 13:28:27;;;;;;;;;;;19.50;99.90;;;;;;5093995;28;19920;-59
2022/05/07 13:30:56;;;;;;;;;;;19.80;99.90;;;;;;5093866;28;20335;-59
2022/05/07 13:33:22;;;;;;;;;;;20.00;99.90;;;;;;5093526;28;19936;-59
2022/05/07 13:35:48;;;;;;;;;;;20.10;99.90;;;;;;5092996;28;19998;-59
2022/05/07 13:38:13;;;;;;;;;;;20.00;99.90;;;;;;5093608;28;20429;-59
2022/05/07 13:40:39;;;;;;;;;;;19.70;99.90;;;;;;5093676;28;20282;-59
2022/05/07 13:43:04;;;;;;;;;;;19.40;99.90;;;;;;5093884;28;19924;-59
2022/05/07 13:45:30;;;;;;;;;;;19.20;99.90;;;;;;5093754;28;19920;-59
2022/05/07 13:47:56;;;;;;;;;;;19.10;99.90;;;;;;5093552;28;20373;-59
2022/05/07 13:50:22;;;;;;;;;;;19.00;99.90;;;;;;5093550;28;19920;-59
2022/05/07 13:52:47;;;;;;;;;;;19.00;99.90;;;;;;5093282;28;19931;-59
2022/05/07 13:55:13;;;;;;;;;;;18.60;99.90;;;;;;5093312;28;19927;-59
2022/05/07 13:57:39;;;;;;;;;;;18.40;99.90;;;;;;5093248;28;19944;-59
2022/05/07 14:00:05;;;;;;;;;;;18.40;99.90;;;;;;5093138;28;19927;-59
2022/05/07 14:02:36;;;;;;;;;;;18.30;99.90;;;;;;5075043;28;20466;-59
2022/05/07 14:05:02;;;;;;;;;;;18.10;99.90;;;;;;5093133;28;20362;-59
2022/05/07 14:07:29;;;;;;;;;;;18.60;99.90;;;;;;5093220;28;19924;-59
2022/05/07 14:09:55;;;;;;;;;;;18.90;99.90;;;;;;5092951;28;19943;-59
2022/05/07 14:12:20;;;;;;;;;;;19.20;99.90;;;;;;5093103;28;20370;-59
2022/05/07 14:14:46;;;;;;;;;;;19.30;99.90;;;;;;5093033;28;19970;-59
2022/05/07 14:17:12;;;;;;;;;;;19.20;99.90;;;;;;5093090;28;19920;-60
2022/05/07 14:19:38;;;;;;;;;;;19.40;99.90;;;;;;5092894;28;19920;-59
2022/05/07 14:22:04;;;;;;;;;;;19.30;99.90;;;;;;5092695;28;19920;-59
2022/05/07 14:24:30;;;;;;;;;;;19.40;99.90;;;;;;5075037;28;20011;-59
2022/05/07 14:26:55;;;;;;;;;;;19.50;99.90;;;;;;5092875;28;20010;-59
2022/05/07 14:29:21;;;;;;;;;;;19.50;99.90;;;;;;5092770;28;20278;-59
2022/05/07 14:31:46;;;;;;;;;;;19.20;99.90;;;;;;5092524;28;19975;-59
2022/05/07 14:34:12;;;;;;;;;;;19.00;99.90;;;;;;5092692;28;20352;-59
2022/05/07 14:36:38;;;;;;;;;;;18.80;99.90;;;;;;5092921;28;20432;-59
2022/05/07 14:39:03;;;;;;;;;;;18.60;99.90;;;;;;5093136;28;19927;-59
2022/05/07 14:41:30;;;;;;;;;;;18.40;99.90;;;;;;5092667;28;20378;-59
2022/05/07 14:43:56;;;;;;;;;;;18.70;99.90;;;;;;5092571;28;19927;-59
2022/05/07 14:46:22;;;;;;;;;;;18.60;99.90;;;;;;5092507;28;19920;-59